createdAt,value
2022-08-20T00:00:29.877Z,5.17
2022-08-20T00:03:19.944Z,5.30
2022-08-20T00:06:12.150Z,5.10
2022-08-20T00:08:59.137Z,5.83
2022-08-20T00:11:45.979Z,5.43
2022-08-20T00:14:33.990Z,4.73
2022-08-20T00:17:21.302Z,5.07
2022-08-20T00:20:12.410Z,5.37
2022-08-20T00:23:01.825Z,5.63
2022-08-20T00:25:49.459Z,5.20
2022-08-20T00:28:36.375Z,5.00
2022-08-20T00:31:25.349Z,5.10
2022-08-20T00:34:12.404Z,5.43
2022-08-20T00:36:59.615Z,5.17
2022-08-20T00:39:48.282Z,4.93
2022-08-20T00:42:43.554Z,5.33
2022-08-20T00:45:34.534Z,5.20
2022-08-20T00:48:21.472Z,4.93
2022-08-20T00:51:11.279Z,4.23
2022-08-20T00:54:04.400Z,4.47
2022-08-20T00:56:58.748Z,5.03
2022-08-20T00:59:45.946Z,4.80
2022-08-20T01:02:33.310Z,5.70
2022-08-20T01:05:27.887Z,5.07
2022-08-20T01:08:19.141Z,4.80
2022-08-20T01:11:16.481Z,4.97
2022-08-20T01:14:23.770Z,4.73
2022-08-20T01:17:13.395Z,4.73
2022-08-20T01:20:07.102Z,4.63
2022-08-20T01:23:25.120Z,4.87
2022-08-20T01:26:15.906Z,5.23
2022-08-20T01:29:05.875Z,4.20
2022-08-20T01:31:53.253Z,4.47
2022-08-20T01:34:40.911Z,4.93
2022-08-20T01:37:31.398Z,4.77
2022-08-20T01:40:28.740Z,4.70
2022-08-20T01:43:17.762Z,4.07
2022-08-20T01:46:06.051Z,4.30
2022-08-20T01:48:54.606Z,4.50
2022-08-20T01:51:43.172Z,3.97
2022-08-20T01:54:30.357Z,4.17
2022-08-20T01:57:19.854Z,4.27
2022-08-20T02:00:10.984Z,4.53
2022-08-20T02:03:07.705Z,3.97
2022-08-20T02:05:54.925Z,4.07
2022-08-20T02:08:42.215Z,3.30
2022-08-20T02:11:31.194Z,3.40
2022-08-20T02:14:18.194Z,4.13
2022-08-20T02:17:07.265Z,4.20
2022-08-20T02:19:58.300Z,3.60
2022-08-20T02:22:50.318Z,3.70
2022-08-20T02:25:42.091Z,3.80
2022-08-20T02:28:29.225Z,3.60
2022-08-20T02:31:17.348Z,3.03
2022-08-20T02:34:18.535Z,4.10
2022-08-20T02:37:10.825Z,3.83
2022-08-20T02:39:58.325Z,3.70
2022-08-20T02:42:45.682Z,3.70
2022-08-20T02:45:37.263Z,3.43
2022-08-20T02:48:24.106Z,3.40
2022-08-20T02:51:12.833Z,3.37
2022-08-20T02:53:59.544Z,3.90
2022-08-20T02:56:47.521Z,3.57
2022-08-20T02:59:34.633Z,3.63
2022-08-20T03:02:21.666Z,2.80
2022-08-20T03:05:09.564Z,3.30
2022-08-20T03:07:58.463Z,3.10
2022-08-20T03:10:47.567Z,3.27
2022-08-20T03:13:34.366Z,3.47
2022-08-20T03:16:21.692Z,3.30
2022-08-20T03:19:08.549Z,3.07
2022-08-20T03:21:55.845Z,3.20
2022-08-20T03:24:45.680Z,2.83
2022-08-20T03:27:36.424Z,3.47
2022-08-20T03:30:25.843Z,3.10
2022-08-20T03:33:13.099Z,3.07
2022-08-20T03:36:01.127Z,3.40
2022-08-20T03:38:47.736Z,3.20
2022-08-20T03:41:35.906Z,3.63
2022-08-20T03:44:22.797Z,3.47
2022-08-20T03:47:09.823Z,3.63
2022-08-20T03:49:59.959Z,3.33
2022-08-20T03:52:47.134Z,3.30
2022-08-20T03:55:34.301Z,3.27
2022-08-20T03:58:34.744Z,3.60
2022-08-20T04:01:44.477Z,3.53
2022-08-20T04:04:30.473Z,3.50
2022-08-20T04:07:20.590Z,3.60
2022-08-20T04:10:10.418Z,3.37
2022-08-20T04:12:57.451Z,3.33
2022-08-20T04:15:47.239Z,4.07
2022-08-20T04:18:36.970Z,3.50
2022-08-20T04:21:23.947Z,3.37
2022-08-20T04:24:22.797Z,3.80
2022-08-20T04:27:21.278Z,3.60
2022-08-20T04:30:12.474Z,3.50
2022-08-20T04:33:01.852Z,3.55
2022-08-20T04:35:49.510Z,3.27
2022-08-20T04:38:47.957Z,3.33
2022-08-20T04:41:37.756Z,3.10
2022-08-20T04:44:25.041Z,3.30
2022-08-20T04:47:11.662Z,3.27
2022-08-20T04:50:01.185Z,3.93
2022-08-20T04:52:49.335Z,3.63
2022-08-20T04:55:38.616Z,3.73
2022-08-20T04:58:30.402Z,3.37
2022-08-20T05:01:18.233Z,3.10
2022-08-20T05:04:05.577Z,3.73
2022-08-20T05:06:54.305Z,3.40
2022-08-20T05:09:44.102Z,3.70
2022-08-20T05:12:31.676Z,3.83
2022-08-20T05:15:19.070Z,3.60
2022-08-20T05:18:08.597Z,3.38
2022-08-20T05:21:04.587Z,3.53
2022-08-20T05:23:53.371Z,2.92
2022-08-20T05:26:40.829Z,3.40
2022-08-20T05:29:28.596Z,3.10
2022-08-20T05:32:15.720Z,3.42
2022-08-20T05:35:02.569Z,3.42
2022-08-20T05:37:49.837Z,3.45
2022-08-20T05:40:38.801Z,3.22
2022-08-20T05:43:25.879Z,2.92
2022-08-20T05:46:13.435Z,2.87
2022-08-20T05:49:01.755Z,2.85
2022-08-20T05:51:49.924Z,3.13
2022-08-20T05:54:37.972Z,2.70
2022-08-20T05:57:26.159Z,2.90
2022-08-20T06:00:15.344Z,3.03
2022-08-20T06:03:20.374Z,2.75
2022-08-20T06:06:18.281Z,2.40
2022-08-20T06:09:30.871Z,2.22
2022-08-20T06:12:19.475Z,2.22
2022-08-20T06:15:09.265Z,2.42
2022-08-20T06:17:58.175Z,2.33
2022-08-20T06:20:46.460Z,2.08
2022-08-20T06:23:54.206Z,2.00
2022-08-20T06:26:40.967Z,2.38
2022-08-20T06:29:28.616Z,2.25
2022-08-20T06:32:19.956Z,2.35
2022-08-20T06:35:20.166Z,2.60
2022-08-20T06:38:07.968Z,2.13
2022-08-20T06:40:54.834Z,2.40
2022-08-20T06:43:42.232Z,2.30
2022-08-20T06:46:29.445Z,2.10
2022-08-20T06:49:18.628Z,2.15
2022-08-20T06:52:08.682Z,2.38
2022-08-20T06:54:58.585Z,2.10
2022-08-20T06:57:45.455Z,2.20
2022-08-20T07:00:34.744Z,2.38
2022-08-20T07:03:21.725Z,2.50
2022-08-20T07:06:11.165Z,2.15
2022-08-20T07:08:58.538Z,2.38
2022-08-20T07:11:45.792Z,2.30
2022-08-20T07:14:32.761Z,2.10
2022-08-20T07:17:24.105Z,2.58
2022-08-20T07:20:15.142Z,2.67
2022-08-20T07:23:04.002Z,2.50
2022-08-20T07:25:50.939Z,2.40
2022-08-20T07:28:40.305Z,2.50
2022-08-20T07:31:44.735Z,2.03
2022-08-20T07:34:34.871Z,2.47
2022-08-20T07:37:23.885Z,2.25
2022-08-20T07:40:15.241Z,2.65
2022-08-20T07:43:03.422Z,2.70
2022-08-20T07:45:54.380Z,2.25
2022-08-20T07:48:48.805Z,2.25
2022-08-20T07:51:36.695Z,2.30
2022-08-20T07:54:28.092Z,2.10
2022-08-20T07:57:19.027Z,1.40
2022-08-20T08:00:08.860Z,1.35
2022-08-20T08:02:56.022Z,1.10
2022-08-20T08:05:46.970Z,1.55
2022-08-20T08:08:34.666Z,1.30
2022-08-20T08:11:21.625Z,1.10
2022-08-20T08:14:12.680Z,1.70
2022-08-20T08:17:03.454Z,1.42
2022-08-20T08:19:51.465Z,1.40
2022-08-20T08:22:39.745Z,1.40
2022-08-20T08:25:27.040Z,1.40
2022-08-20T08:28:17.621Z,1.20
2022-08-20T08:31:06.152Z,1.20
2022-08-20T08:33:53.110Z,1.58
2022-08-20T08:36:40.280Z,1.20
2022-08-20T08:39:33.371Z,1.15
2022-08-20T08:42:37.952Z,1.42
2022-08-20T08:45:31.874Z,1.05
2022-08-20T08:48:21.495Z,1.10
2022-08-20T08:51:12.651Z,0.68
2022-08-20T08:54:04.654Z,0.80
2022-08-20T08:56:54.146Z,0.85
2022-08-20T08:59:52.524Z,0.73
2022-08-20T09:03:00.049Z,0.95
2022-08-20T09:05:52.775Z,0.70
2022-08-20T09:08:45.870Z,0.73
2022-08-20T09:11:33.543Z,0.57
2022-08-20T09:14:25.009Z,0.88
2022-08-20T09:17:12.214Z,0.80
2022-08-20T09:19:59.195Z,0.63
2022-08-20T09:22:47.866Z,0.80
2022-08-20T09:25:38.359Z,0.93
2022-08-20T09:28:25.507Z,0.82
2022-08-20T09:31:19.840Z,0.88
2022-08-20T09:34:09.610Z,0.90
2022-08-20T09:36:56.164Z,0.85
2022-08-20T09:39:44.498Z,0.70
2022-08-20T09:42:37.619Z,0.90
2022-08-20T09:45:28.231Z,0.82
2022-08-20T09:48:15.111Z,0.95
2022-08-20T09:51:02.926Z,0.90
2022-08-20T09:53:50.113Z,0.90
2022-08-20T09:56:38.508Z,0.90
2022-08-20T09:59:27.065Z,0.98
2022-08-20T10:02:15.486Z,0.80
2022-08-20T10:05:02.791Z,1.00
2022-08-20T10:07:50.174Z,0.80
2022-08-20T10:10:37.905Z,0.80
2022-08-20T10:13:26.450Z,0.73
2022-08-20T10:16:13.519Z,1.00
2022-08-20T10:19:00.826Z,0.75
2022-08-20T10:21:47.945Z,0.88
2022-08-20T10:24:35.926Z,0.80
2022-08-20T10:27:23.256Z,0.93
2022-08-20T10:30:13.178Z,0.80
2022-08-20T10:33:00.381Z,0.70
2022-08-20T10:35:47.104Z,0.85
2022-08-20T10:38:33.853Z,0.80
2022-08-20T10:41:21.429Z,0.80
2022-08-20T10:44:08.655Z,0.90
2022-08-20T10:46:57.453Z,0.82
2022-08-20T10:49:44.501Z,1.00
2022-08-20T10:52:31.333Z,0.90
2022-08-20T10:55:18.837Z,0.77
2022-08-20T10:58:07.156Z,0.85
2022-08-20T11:00:58.495Z,0.88
2022-08-20T11:03:47.081Z,0.95
2022-08-20T11:06:34.091Z,1.00
2022-08-20T11:09:21.369Z,0.73
2022-08-20T11:12:08.956Z,0.70
2022-08-20T11:14:56.745Z,0.65
2022-08-20T11:17:45.329Z,0.77
2022-08-20T11:20:34.364Z,0.60
2022-08-20T11:23:21.425Z,0.93
2022-08-20T11:26:08.444Z,1.80
2022-08-20T11:28:55.353Z,1.10
2022-08-20T11:31:42.756Z,0.73
2022-08-20T11:34:30.265Z,0.73
2022-08-20T11:37:21.141Z,0.80
2022-08-20T11:40:11.981Z,0.80
2022-08-20T11:43:14.216Z,0.80
2022-08-20T11:46:02.392Z,0.90
2022-08-20T11:48:49.671Z,0.80
2022-08-20T11:51:49.944Z,0.65
2022-08-20T11:54:40.568Z,0.90
2022-08-20T11:57:29.727Z,0.57
2022-08-20T12:00:19.932Z,0.80
2022-08-20T12:03:19.605Z,0.70
2022-08-20T12:06:07.688Z,0.55
2022-08-20T12:08:54.474Z,0.70
2022-08-20T12:11:42.966Z,0.50
2022-08-20T12:14:29.895Z,0.70
2022-08-20T12:17:19.818Z,0.75
2022-08-20T12:20:09.713Z,0.50
2022-08-20T12:22:58.856Z,0.60
2022-08-20T12:25:46.226Z,0.50
2022-08-20T12:28:35.061Z,0.60
2022-08-20T12:31:22.024Z,0.70
2022-08-20T12:34:09.144Z,0.80
2022-08-20T12:37:02.857Z,0.82
2022-08-20T12:39:52.099Z,0.63
2022-08-20T12:42:39.436Z,0.90
2022-08-20T12:45:27.875Z,0.70
2022-08-20T12:48:15.322Z,0.60
2022-08-20T12:51:02.339Z,0.70
2022-08-20T12:53:49.084Z,0.50
2022-08-20T12:56:36.365Z,0.60
2022-08-20T12:59:25.989Z,0.50
2022-08-20T13:02:18.716Z,0.50
2022-08-20T13:05:07.100Z,0.60
2022-08-20T13:07:54.734Z,0.73
2022-08-20T13:10:45.837Z,0.80
2022-08-20T13:13:33.000Z,0.90
2022-08-20T13:16:20.347Z,0.77
2022-08-20T13:19:08.900Z,0.50
2022-08-20T13:21:56.369Z,0.75
2022-08-20T13:24:43.966Z,0.85
2022-08-20T13:27:30.792Z,0.60
2022-08-20T13:30:20.219Z,0.73
2022-08-20T13:33:07.645Z,0.40
2022-08-20T13:35:55.916Z,0.60
2022-08-20T13:38:42.833Z,0.82
2022-08-20T13:41:29.500Z,0.68
2022-08-20T13:44:16.787Z,1.02
2022-08-20T13:47:15.760Z,0.82
2022-08-20T13:50:08.262Z,0.90
2022-08-20T13:52:56.633Z,0.80
2022-08-20T13:55:44.324Z,1.20
2022-08-20T13:58:31.720Z,0.73
2022-08-20T14:01:18.638Z,1.20
2022-08-20T14:04:06.247Z,0.80
2022-08-20T14:06:53.444Z,1.00
2022-08-20T14:09:44.205Z,0.85
2022-08-20T14:12:31.366Z,0.90
2022-08-20T14:15:19.205Z,0.75
2022-08-20T14:18:06.286Z,1.10
2022-08-20T14:20:53.279Z,1.00
2022-08-20T14:23:40.297Z,0.70
2022-08-20T14:26:28.835Z,0.70
2022-08-20T14:29:19.561Z,0.63
2022-08-20T14:32:07.690Z,0.50
2022-08-20T14:34:56.632Z,0.93
2022-08-20T14:37:47.266Z,1.10
2022-08-20T14:40:35.110Z,0.90
2022-08-20T14:43:23.395Z,0.70
2022-08-20T14:46:10.725Z,0.70
2022-08-20T14:48:57.764Z,0.77
2022-08-20T14:51:45.110Z,0.70
2022-08-20T14:54:31.984Z,0.73
2022-08-20T14:57:23.131Z,0.70
2022-08-20T15:00:14.787Z,0.85
2022-08-20T15:03:02.853Z,0.77
2022-08-20T15:05:50.288Z,1.10
2022-08-20T15:08:37.463Z,0.80
2022-08-20T15:11:24.631Z,1.10
2022-08-20T15:14:11.840Z,0.82
2022-08-20T15:17:03.186Z,1.02
2022-08-20T15:19:50.654Z,0.90
2022-08-20T15:22:37.647Z,0.77
2022-08-20T15:25:27.452Z,0.90
2022-08-20T15:28:23.298Z,0.80
2022-08-20T15:31:11.091Z,0.80
2022-08-20T15:33:59.300Z,1.10
2022-08-20T15:36:46.298Z,1.05
2022-08-20T15:39:33.355Z,1.08
2022-08-20T15:42:24.071Z,1.27
2022-08-20T15:45:12.524Z,1.50
2022-08-20T15:48:12.933Z,1.13
2022-08-20T15:51:25.846Z,1.40
2022-08-20T15:54:18.524Z,1.33
2022-08-20T15:57:11.515Z,1.10
2022-08-20T16:00:10.307Z,1.20
2022-08-20T16:03:21.587Z,1.30
2022-08-20T16:06:15.240Z,1.52
2022-08-20T16:09:27.350Z,1.30
2022-08-20T16:12:18.657Z,1.58
2022-08-20T16:15:10.001Z,1.52
2022-08-20T16:18:11.812Z,1.60
2022-08-20T16:21:03.470Z,1.30
2022-08-20T16:23:51.141Z,1.58
2022-08-20T16:26:53.334Z,1.10
2022-08-20T16:29:54.705Z,1.40
2022-08-20T16:32:48.895Z,1.13
2022-08-20T16:35:38.666Z,1.08
2022-08-20T16:38:34.589Z,0.80
2022-08-20T16:41:29.882Z,1.20
2022-08-20T16:44:31.372Z,0.85
2022-08-20T16:47:20.959Z,1.23
2022-08-20T16:50:12.747Z,1.15
2022-08-20T16:53:00.215Z,1.10
2022-08-20T16:55:47.397Z,1.10
2022-08-20T16:58:34.977Z,0.90
2022-08-20T17:01:27.605Z,1.20
2022-08-20T17:04:22.284Z,0.90
2022-08-20T17:07:09.056Z,1.20
2022-08-20T17:10:11.770Z,1.17
2022-08-20T17:13:05.558Z,1.15
2022-08-20T17:16:04.702Z,0.98
2022-08-20T17:18:54.873Z,0.90
2022-08-20T17:21:43.022Z,1.08
2022-08-20T17:24:33.201Z,1.10
2022-08-20T17:27:36.593Z,1.48
2022-08-20T17:30:28.809Z,1.00
2022-08-20T17:33:30.306Z,1.20
2022-08-20T17:36:26.205Z,1.10
2022-08-20T17:39:19.408Z,1.15
2022-08-20T17:42:09.963Z,1.15
2022-08-20T17:45:06.568Z,1.40
2022-08-20T17:47:55.790Z,1.13
2022-08-20T17:50:44.579Z,1.23
2022-08-20T17:53:37.038Z,1.15
2022-08-20T17:56:27.492Z,1.15
2022-08-20T17:59:33.568Z,1.08
2022-08-20T18:02:27.697Z,1.35
2022-08-20T18:05:21.092Z,1.30
2022-08-20T18:08:17.963Z,1.35
2022-08-20T18:11:19.884Z,1.17
2022-08-20T18:14:20.151Z,1.40
2022-08-20T18:17:17.413Z,1.35
2022-08-20T18:20:13.160Z,1.52
2022-08-20T18:23:04.765Z,1.55
2022-08-20T18:25:56.369Z,1.67
2022-08-20T18:28:49.857Z,1.50
2022-08-20T18:31:45.415Z,1.45
2022-08-20T18:34:39.305Z,1.42
2022-08-20T18:37:29.175Z,1.33
2022-08-20T18:40:20.602Z,1.52
2022-08-20T18:43:14.635Z,1.63
2022-08-20T18:46:21.441Z,1.38
2022-08-20T18:49:09.748Z,1.55
2022-08-20T18:51:57.549Z,1.33
2022-08-20T18:54:51.909Z,1.30
2022-08-20T18:57:42.808Z,1.30
2022-08-20T19:00:37.880Z,1.10
2022-08-20T19:03:31.456Z,1.30
2022-08-20T19:06:40.147Z,1.42
2022-08-20T19:09:52.098Z,1.55
2022-08-20T19:13:20.480Z,1.20
2022-08-20T19:16:14.724Z,1.40
2022-08-20T19:19:03.654Z,1.58
2022-08-20T19:21:51.048Z,1.70
2022-08-20T19:24:43.716Z,1.67
2022-08-20T19:27:31.704Z,1.58
2022-08-20T19:30:34.381Z,1.50
2022-08-20T19:33:43.935Z,1.50
2022-08-20T19:36:33.764Z,1.47
2022-08-20T19:39:25.813Z,1.47
2022-08-20T19:42:17.276Z,1.60
2022-08-20T19:45:08.992Z,1.67
2022-08-20T19:48:16.024Z,1.40
2022-08-20T19:51:16.013Z,1.60
2022-08-20T19:54:04.650Z,1.50
2022-08-20T19:56:56.604Z,1.53
2022-08-20T19:59:58.744Z,1.67
2022-08-20T20:02:46.388Z,1.63
2022-08-20T20:05:33.507Z,1.70
2022-08-20T20:08:22.453Z,1.63
2022-08-20T20:11:17.371Z,1.53
2022-08-20T20:14:07.968Z,1.93
2022-08-20T20:16:55.491Z,1.60
2022-08-20T20:19:47.598Z,1.57
2022-08-20T20:22:48.813Z,1.50
2022-08-20T20:25:42.049Z,1.90
2022-08-20T20:28:34.570Z,1.80
2022-08-20T20:31:25.588Z,1.63
2022-08-20T20:34:16.498Z,1.67
2022-08-20T20:37:10.441Z,1.60
2022-08-20T20:40:12.588Z,1.70
2022-08-20T20:43:10.170Z,1.40
2022-08-20T20:46:03.729Z,1.80
2022-08-20T20:48:53.721Z,1.70
2022-08-20T20:51:42.707Z,1.33
2022-08-20T20:54:41.482Z,1.70
2022-08-20T20:57:38.667Z,1.93
2022-08-20T21:00:28.872Z,1.73
2022-08-20T21:03:17.278Z,1.60
2022-08-20T21:06:04.654Z,1.70
2022-08-20T21:08:53.650Z,2.20
2022-08-20T21:11:40.694Z,1.87
2022-08-20T21:14:28.861Z,1.67
2022-08-20T21:17:21.497Z,1.73
2022-08-20T21:20:11.565Z,1.50
2022-08-20T21:22:59.586Z,1.50
2022-08-20T21:25:47.008Z,1.70
2022-08-20T21:28:34.618Z,1.93
2022-08-20T21:31:21.584Z,1.80
2022-08-20T21:34:08.775Z,1.47
2022-08-20T21:36:57.709Z,1.60
2022-08-20T21:39:46.232Z,1.60
2022-08-20T21:42:33.494Z,1.40
2022-08-20T21:45:24.595Z,1.57
2022-08-20T21:48:15.830Z,1.67
2022-08-20T21:51:02.892Z,1.80
2022-08-20T21:53:52.017Z,2.20
2022-08-20T21:56:39.619Z,1.80
2022-08-20T21:59:26.963Z,1.63
2022-08-20T22:02:14.381Z,1.73
2022-08-20T22:05:01.430Z,1.60
2022-08-20T22:07:48.874Z,1.50
2022-08-20T22:10:36.918Z,2.20
2022-08-20T22:13:24.342Z,2.20
2022-08-20T22:16:14.122Z,1.87
2022-08-20T22:19:01.348Z,1.80
2022-08-20T22:21:49.542Z,1.97
2022-08-20T22:24:37.854Z,2.07
2022-08-20T22:27:26.426Z,1.80
2022-08-20T22:30:14.087Z,1.83
2022-08-20T22:33:03.894Z,1.60
2022-08-20T22:35:53.749Z,1.90
2022-08-20T22:38:40.923Z,1.60
2022-08-20T22:41:28.495Z,2.23
2022-08-20T22:44:16.912Z,2.23
2022-08-20T22:47:07.785Z,1.70
2022-08-20T22:49:56.156Z,1.80
2022-08-20T22:52:43.540Z,1.80
2022-08-20T22:55:30.668Z,2.00
2022-08-20T22:58:17.867Z,1.90
2022-08-20T23:01:06.341Z,2.03
2022-08-20T23:03:53.354Z,2.10
2022-08-20T23:06:43.624Z,2.10
2022-08-20T23:09:31.003Z,2.00
2022-08-20T23:12:18.418Z,2.10
2022-08-20T23:15:07.395Z,2.20
2022-08-20T23:18:00.968Z,2.00
2022-08-20T23:20:56.016Z,1.90
2022-08-20T23:23:42.824Z,2.00
2022-08-20T23:26:29.818Z,2.37
2022-08-20T23:29:22.615Z,2.20
2022-08-20T23:32:13.120Z,1.73
2022-08-20T23:35:02.635Z,2.20
2022-08-20T23:37:52.100Z,1.90
2022-08-20T23:40:41.310Z,2.27
2022-08-20T23:43:28.882Z,1.90
2022-08-20T23:46:16.039Z,1.90
2022-08-20T23:49:03.338Z,2.13
2022-08-20T23:51:51.267Z,1.77
2022-08-20T23:54:38.420Z,1.90
2022-08-20T23:57:25.430Z,1.80
